sensor_id;sensor_type;location;lat;lon;timestamp;P1;durP1;ratioP1;P2;durP2;ratioP2
22318;SDS011;11327;52.334;9.506;2023-08-21T00:01:44;4.55;;;2.33;;
22318;SDS011;11327;52.334;9.506;2023-08-21T00:05:05;6.65;;;2.85;;
22318;SDS011;11327;52.334;9.506;2023-08-21T00:08:26;5.20;;;2.60;;
22318;SDS011;11327;52.334;9.506;2023-08-21T00:11:47;5.80;;;2.67;;
22318;SDS011;11327;52.334;9.506;2023-08-21T00:15:08;4.22;;;2.40;;
22318;SDS011;11327;52.334;9.506;2023-08-21T00:18:30;4.37;;;2.30;;
22318;SDS011;11327;52.334;9.506;2023-08-21T00:21:50;4.42;;;2.42;;
22318;SDS011;11327;52.334;9.506;2023-08-21T00:25:11;2.77;;;1.82;;
22318;SDS011;11327;52.334;9.506;2023-08-21T00:28:32;4.78;;;1.87;;
22318;SDS011;11327;52.334;9.506;2023-08-21T00:31:55;5.55;;;2.05;;
22318;SDS011;11327;52.334;9.506;2023-08-21T00:35:16;3.98;;;1.98;;
22318;SDS011;11327;52.334;9.506;2023-08-21T00:38:37;4.08;;;2.00;;
22318;SDS011;11327;52.334;9.506;2023-08-21T00:41:58;5.40;;;1.80;;
22318;SDS011;11327;52.334;9.506;2023-08-21T00:45:18;3.47;;;1.80;;
22318;SDS011;11327;52.334;9.506;2023-08-21T00:48:39;3.80;;;1.77;;
22318;SDS011;11327;52.334;9.506;2023-08-21T00:52:00;2.27;;;1.70;;
22318;SDS011;11327;52.334;9.506;2023-08-21T00:55:21;5.42;;;1.90;;
22318;SDS011;11327;52.334;9.506;2023-08-21T00:58:43;3.40;;;1.52;;
22318;SDS011;11327;52.334;9.506;2023-08-21T01:02:04;4.45;;;1.80;;
22318;SDS011;11327;52.334;9.506;2023-08-21T01:05:25;4.37;;;1.98;;
22318;SDS011;11327;52.334;9.506;2023-08-21T01:12:22;4.78;;;1.95;;
22318;SDS011;11327;52.334;9.506;2023-08-21T01:15:46;3.87;;;1.80;;
22318;SDS011;11327;52.334;9.506;2023-08-21T01:19:13;3.37;;;1.70;;
22318;SDS011;11327;52.334;9.506;2023-08-21T01:22:38;2.58;;;1.42;;
22318;SDS011;11327;52.334;9.506;2023-08-21T01:26:00;2.92;;;1.55;;
22318;SDS011;11327;52.334;9.506;2023-08-21T01:29:21;4.58;;;1.67;;
22318;SDS011;11327;52.334;9.506;2023-08-21T01:32:45;3.90;;;1.80;;
22318;SDS011;11327;52.334;9.506;2023-08-21T01:36:13;3.75;;;1.40;;
22318;SDS011;11327;52.334;9.506;2023-08-21T01:39:35;5.05;;;1.47;;
22318;SDS011;11327;52.334;9.506;2023-08-21T01:42:55;2.70;;;1.30;;
22318;SDS011;11327;52.334;9.506;2023-08-21T01:46:18;2.72;;;1.50;;
22318;SDS011;11327;52.334;9.506;2023-08-21T01:49:39;4.47;;;1.62;;
22318;SDS011;11327;52.334;9.506;2023-08-21T01:53:00;3.27;;;1.65;;
22318;SDS011;11327;52.334;9.506;2023-08-21T01:56:20;3.98;;;1.65;;
22318;SDS011;11327;52.334;9.506;2023-08-21T01:59:41;3.02;;;1.70;;
22318;SDS011;11327;52.334;9.506;2023-08-21T02:03:02;4.75;;;1.77;;
22318;SDS011;11327;52.334;9.506;2023-08-21T02:06:23;2.65;;;1.50;;
22318;SDS011;11327;52.334;9.506;2023-08-21T02:09:43;3.05;;;1.60;;
22318;SDS011;11327;52.334;9.506;2023-08-21T02:13:04;2.62;;;1.40;;
22318;SDS011;11327;52.334;9.506;2023-08-21T02:16:25;2.40;;;1.55;;
22318;SDS011;11327;52.334;9.506;2023-08-21T02:19:45;3.25;;;1.60;;
22318;SDS011;11327;52.334;9.506;2023-08-21T02:23:06;3.72;;;1.60;;
22318;SDS011;11327;52.334;9.506;2023-08-21T02:26:27;4.05;;;1.57;;
22318;SDS011;11327;52.334;9.506;2023-08-21T02:29:48;2.67;;;1.45;;
22318;SDS011;11327;52.334;9.506;2023-08-21T02:33:08;3.20;;;1.70;;
22318;SDS011;11327;52.334;9.506;2023-08-21T02:36:29;3.05;;;1.45;;
22318;SDS011;11327;52.334;9.506;2023-08-21T02:39:50;5.12;;;1.85;;
22318;SDS011;11327;52.334;9.506;2023-08-21T02:43:11;3.10;;;1.57;;
22318;SDS011;11327;52.334;9.506;2023-08-21T02:46:31;3.12;;;1.50;;
22318;SDS011;11327;52.334;9.506;2023-08-21T02:49:54;4.70;;;1.70;;
22318;SDS011;11327;52.334;9.506;2023-08-21T02:53:15;4.87;;;2.10;;
22318;SDS011;11327;52.334;9.506;2023-08-21T02:56:35;3.60;;;1.82;;
22318;SDS011;11327;52.334;9.506;2023-08-21T02:59:56;3.22;;;1.80;;
22318;SDS011;11327;52.334;9.506;2023-08-21T03:03:17;2.83;;;1.90;;
22318;SDS011;11327;52.334;9.506;2023-08-21T03:06:38;3.42;;;1.80;;
22318;SDS011;11327;52.334;9.506;2023-08-21T03:09:59;2.83;;;1.80;;
22318;SDS011;11327;52.334;9.506;2023-08-21T03:13:20;3.58;;;1.80;;
22318;SDS011;11327;52.334;9.506;2023-08-21T03:16:40;3.75;;;1.80;;
22318;SDS011;11327;52.334;9.506;2023-08-21T03:20:01;5.05;;;1.90;;
22318;SDS011;11327;52.334;9.506;2023-08-21T03:23:24;3.95;;;1.70;;
22318;SDS011;11327;52.334;9.506;2023-08-21T03:26:45;3.50;;;1.60;;
22318;SDS011;11327;52.334;9.506;2023-08-21T03:30:06;3.90;;;1.98;;
22318;SDS011;11327;52.334;9.506;2023-08-21T03:33:27;4.03;;;2.10;;
22318;SDS011;11327;52.334;9.506;2023-08-21T03:36:48;4.92;;;1.70;;
22318;SDS011;11327;52.334;9.506;2023-08-21T03:40:09;3.08;;;1.70;;
22318;SDS011;11327;52.334;9.506;2023-08-21T03:43:30;4.90;;;2.10;;
22318;SDS011;11327;52.334;9.506;2023-08-21T03:46:51;2.70;;;1.57;;
22318;SDS011;11327;52.334;9.506;2023-08-21T03:50:11;4.47;;;1.60;;
22318;SDS011;11327;52.334;9.506;2023-08-21T03:53:33;3.87;;;2.08;;
22318;SDS011;11327;52.334;9.506;2023-08-21T03:56:54;4.42;;;1.92;;
22318;SDS011;11327;52.334;9.506;2023-08-21T04:00:14;4.33;;;2.02;;
22318;SDS011;11327;52.334;9.506;2023-08-21T04:03:35;3.65;;;1.90;;
22318;SDS011;11327;52.334;9.506;2023-08-21T04:06:56;2.95;;;1.57;;
22318;SDS011;11327;52.334;9.506;2023-08-21T04:10:17;2.87;;;1.67;;
22318;SDS011;11327;52.334;9.506;2023-08-21T04:13:37;4.25;;;1.80;;
22318;SDS011;11327;52.334;9.506;2023-08-21T04:16:58;4.05;;;1.90;;
22318;SDS011;11327;52.334;9.506;2023-08-21T04:20:19;3.30;;;1.60;;
22318;SDS011;11327;52.334;9.506;2023-08-21T04:23:43;2.80;;;1.62;;
22318;SDS011;11327;52.334;9.506;2023-08-21T04:27:05;3.67;;;1.72;;
22318;SDS011;11327;52.334;9.506;2023-08-21T04:30:26;3.75;;;1.57;;
22318;SDS011;11327;52.334;9.506;2023-08-21T04:33:46;3.15;;;2.00;;
22318;SDS011;11327;52.334;9.506;2023-08-21T04:37:07;3.72;;;1.82;;
22318;SDS011;11327;52.334;9.506;2023-08-21T04:40:28;6.40;;;1.90;;
22318;SDS011;11327;52.334;9.506;2023-08-21T04:43:48;2.67;;;1.70;;
22318;SDS011;11327;52.334;9.506;2023-08-21T04:47:23;3.52;;;1.70;;
22318;SDS011;11327;52.334;9.506;2023-08-21T04:50:42;2.85;;;1.70;;
22318;SDS011;11327;52.334;9.506;2023-08-21T04:54:03;3.00;;;1.57;;
22318;SDS011;11327;52.334;9.506;2023-08-21T04:57:24;4.50;;;1.80;;
22318;SDS011;11327;52.334;9.506;2023-08-21T05:00:44;6.10;;;1.90;;
22318;SDS011;11327;52.334;9.506;2023-08-21T05:04:06;2.72;;;1.52;;
22318;SDS011;11327;52.334;9.506;2023-08-21T05:07:27;3.08;;;1.70;;
22318;SDS011;11327;52.334;9.506;2023-08-21T05:10:47;3.85;;;1.52;;
22318;SDS011;11327;52.334;9.506;2023-08-21T05:14:08;2.47;;;1.75;;
22318;SDS011;11327;52.334;9.506;2023-08-21T05:17:29;3.62;;;1.70;;
22318;SDS011;11327;52.334;9.506;2023-08-21T05:20:54;3.58;;;1.60;;
22318;SDS011;11327;52.334;9.506;2023-08-21T05:24:14;3.10;;;2.02;;
22318;SDS011;11327;52.334;9.506;2023-08-21T05:27:35;3.15;;;1.70;;
22318;SDS011;11327;52.334;9.506;2023-08-21T05:30:56;3.85;;;1.80;;
22318;SDS011;11327;52.334;9.506;2023-08-21T05:34:18;2.47;;;1.77;;
22318;SDS011;11327;52.334;9.506;2023-08-21T05:37:38;3.98;;;1.90;;
22318;SDS011;11327;52.334;9.506;2023-08-21T05:40:59;3.75;;;2.12;;
22318;SDS011;11327;52.334;9.506;2023-08-21T05:44:21;4.12;;;2.33;;
22318;SDS011;11327;52.334;9.506;2023-08-21T05:47:41;4.33;;;2.37;;
22318;SDS011;11327;52.334;9.506;2023-08-21T05:51:02;4.87;;;2.35;;
22318;SDS011;11327;52.334;9.506;2023-08-21T05:54:24;7.17;;;2.52;;
22318;SDS011;11327;52.334;9.506;2023-08-21T05:57:46;3.95;;;1.80;;
22318;SDS011;11327;52.334;9.506;2023-08-21T06:01:06;4.42;;;2.20;;
22318;SDS011;11327;52.334;9.506;2023-08-21T06:04:27;3.00;;;1.80;;
22318;SDS011;11327;52.334;9.506;2023-08-21T06:07:48;4.05;;;2.20;;
22318;SDS011;11327;52.334;9.506;2023-08-21T06:11:09;4.47;;;2.25;;
22318;SDS011;11327;52.334;9.506;2023-08-21T06:14:30;3.87;;;2.10;;
22318;SDS011;11327;52.334;9.506;2023-08-21T06:17:51;5.00;;;2.27;;
22318;SDS011;11327;52.334;9.506;2023-08-21T06:21:11;5.37;;;2.45;;
22318;SDS011;11327;52.334;9.506;2023-08-21T06:24:32;4.95;;;2.30;;
22318;SDS011;11327;52.334;9.506;2023-08-21T06:27:53;4.85;;;2.15;;
22318;SDS011;11327;52.334;9.506;2023-08-21T06:31:14;4.05;;;1.90;;
22318;SDS011;11327;52.334;9.506;2023-08-21T06:34:35;3.58;;;1.60;;
22318;SDS011;11327;52.334;9.506;2023-08-21T06:37:56;3.33;;;1.87;;
22318;SDS011;11327;52.334;9.506;2023-08-21T06:41:16;5.20;;;2.40;;
22318;SDS011;11327;52.334;9.506;2023-08-21T06:44:37;3.65;;;2.08;;
22318;SDS011;11327;52.334;9.506;2023-08-21T06:47:58;6.10;;;1.95;;
22318;SDS011;11327;52.334;9.506;2023-08-21T06:51:18;3.65;;;1.95;;
22318;SDS011;11327;52.334;9.506;2023-08-21T06:54:39;4.60;;;1.87;;
22318;SDS011;11327;52.334;9.506;2023-08-21T06:58:00;5.62;;;2.10;;
22318;SDS011;11327;52.334;9.506;2023-08-21T07:01:21;4.35;;;2.10;;
22318;SDS011;11327;52.334;9.506;2023-08-21T07:04:42;4.25;;;2.12;;
22318;SDS011;11327;52.334;9.506;2023-08-21T07:08:02;3.20;;;2.00;;
22318;SDS011;11327;52.334;9.506;2023-08-21T07:11:24;4.65;;;2.70;;
22318;SDS011;11327;52.334;9.506;2023-08-21T07:14:44;6.28;;;2.65;;
22318;SDS011;11327;52.334;9.506;2023-08-21T07:18:05;6.75;;;3.12;;
22318;SDS011;11327;52.334;9.506;2023-08-21T07:21:26;6.17;;;2.83;;
22318;SDS011;11327;52.334;9.506;2023-08-21T07:24:47;6.62;;;2.58;;
22318;SDS011;11327;52.334;9.506;2023-08-21T07:28:08;7.83;;;3.02;;
22318;SDS011;11327;52.334;9.506;2023-08-21T07:31:31;6.78;;;2.20;;
22318;SDS011;11327;52.334;9.506;2023-08-21T07:34:52;6.25;;;2.37;;
22318;SDS011;11327;52.334;9.506;2023-08-21T07:38:14;4.97;;;2.52;;
22318;SDS011;11327;52.334;9.506;2023-08-21T07:41:35;5.78;;;2.30;;
22318;SDS011;11327;52.334;9.506;2023-08-21T07:44:56;6.33;;;2.98;;
22318;SDS011;11327;52.334;9.506;2023-08-21T07:48:16;5.17;;;2.33;;
22318;SDS011;11327;52.334;9.506;2023-08-21T07:51:37;6.67;;;2.22;;
22318;SDS011;11327;52.334;9.506;2023-08-21T07:54:58;6.25;;;2.50;;
22318;SDS011;11327;52.334;9.506;2023-08-21T07:58:20;5.58;;;2.47;;
22318;SDS011;11327;52.334;9.506;2023-08-21T08:01:41;5.15;;;2.70;;
22318;SDS011;11327;52.334;9.506;2023-08-21T08:05:02;5.55;;;2.35;;
22318;SDS011;11327;52.334;9.506;2023-08-21T08:08:23;7.28;;;2.90;;
22318;SDS011;11327;52.334;9.506;2023-08-21T08:11:44;9.28;;;3.10;;
22318;SDS011;11327;52.334;9.506;2023-08-21T08:15:05;5.33;;;2.52;;
22318;SDS011;11327;52.334;9.506;2023-08-21T08:18:26;6.75;;;2.77;;
22318;SDS011;11327;52.334;9.506;2023-08-21T08:21:47;7.60;;;2.83;;
22318;SDS011;11327;52.334;9.506;2023-08-21T08:25:07;4.78;;;2.22;;
22318;SDS011;11327;52.334;9.506;2023-08-21T08:28:29;6.05;;;2.90;;
22318;SDS011;11327;52.334;9.506;2023-08-21T08:31:49;6.10;;;2.70;;
22318;SDS011;11327;52.334;9.506;2023-08-21T08:35:12;6.15;;;2.40;;
22318;SDS011;11327;52.334;9.506;2023-08-21T08:38:33;7.40;;;2.92;;
22318;SDS011;11327;52.334;9.506;2023-08-21T08:41:56;6.25;;;2.67;;
22318;SDS011;11327;52.334;9.506;2023-08-21T08:45:23;6.10;;;2.10;;
22318;SDS011;11327;52.334;9.506;2023-08-21T08:48:44;4.03;;;1.75;;
22318;SDS011;11327;52.334;9.506;2023-08-21T08:52:05;4.75;;;1.70;;
22318;SDS011;11327;52.334;9.506;2023-08-21T08:55:26;6.30;;;2.00;;
22318;SDS011;11327;52.334;9.506;2023-08-21T08:58:47;4.53;;;2.00;;
22318;SDS011;11327;52.334;9.506;2023-08-21T09:02:08;10.18;;;2.20;;
22318;SDS011;11327;52.334;9.506;2023-08-21T09:05:29;4.42;;;2.10;;
22318;SDS011;11327;52.334;9.506;2023-08-21T09:08:53;4.33;;;1.70;;
22318;SDS011;11327;52.334;9.506;2023-08-21T09:12:16;3.40;;;1.70;;
22318;SDS011;11327;52.334;9.506;2023-08-21T09:15:37;6.05;;;1.40;;
22318;SDS011;11327;52.334;9.506;2023-08-21T09:18:58;5.17;;;1.65;;
22318;SDS011;11327;52.334;9.506;2023-08-21T09:22:19;5.17;;;1.87;;
22318;SDS011;11327;52.334;9.506;2023-08-21T09:25:40;3.62;;;1.40;;
22318;SDS011;11327;52.334;9.506;2023-08-21T09:29:02;10.72;;;2.00;;
22318;SDS011;11327;52.334;9.506;2023-08-21T09:32:26;4.17;;;1.65;;
22318;SDS011;11327;52.334;9.506;2023-08-21T09:35:47;6.15;;;2.00;;
22318;SDS011;11327;52.334;9.506;2023-08-21T09:39:15;13.93;;;2.10;;
22318;SDS011;11327;52.334;9.506;2023-08-21T09:42:40;4.87;;;1.27;;
22318;SDS011;11327;52.334;9.506;2023-08-21T09:46:02;5.20;;;1.50;;
22318;SDS011;11327;52.334;9.506;2023-08-21T09:49:24;4.58;;;1.15;;
22318;SDS011;11327;52.334;9.506;2023-08-21T09:52:45;4.03;;;1.50;;
22318;SDS011;11327;52.334;9.506;2023-08-21T09:56:06;4.42;;;1.30;;
22318;SDS011;11327;52.334;9.506;2023-08-21T09:59:29;3.42;;;1.25;;
22318;SDS011;11327;52.334;9.506;2023-08-21T10:02:51;3.77;;;1.30;;
22318;SDS011;11327;52.334;9.506;2023-08-21T10:06:15;2.98;;;1.00;;
22318;SDS011;11327;52.334;9.506;2023-08-21T10:09:39;3.45;;;0.98;;
22318;SDS011;11327;52.334;9.506;2023-08-21T10:13:02;4.15;;;1.02;;
22318;SDS011;11327;52.334;9.506;2023-08-21T10:16:24;3.95;;;1.10;;
22318;SDS011;11327;52.334;9.506;2023-08-21T10:19:50;3.67;;;1.00;;
22318;SDS011;11327;52.334;9.506;2023-08-21T10:23:10;4.20;;;1.10;;
22318;SDS011;11327;52.334;9.506;2023-08-21T10:26:37;4.45;;;1.00;;
22318;SDS011;11327;52.334;9.506;2023-08-21T10:29:58;3.58;;;1.20;;
22318;SDS011;11327;52.334;9.506;2023-08-21T10:33:36;2.20;;;0.72;;
22318;SDS011;11327;52.334;9.506;2023-08-21T10:40:08;3.00;;;1.05;;
22318;SDS011;11327;52.334;9.506;2023-08-21T10:43:45;3.25;;;1.30;;
22318;SDS011;11327;52.334;9.506;2023-08-21T10:47:13;6.25;;;1.70;;
22318;SDS011;11327;52.334;9.506;2023-08-21T10:50:39;5.03;;;1.22;;
22318;SDS011;11327;52.334;9.506;2023-08-21T10:54:10;4.00;;;1.60;;
22318;SDS011;11327;52.334;9.506;2023-08-21T10:57:25;4.60;;;1.72;;
22318;SDS011;11327;52.334;9.506;2023-08-21T11:00:57;4.03;;;1.40;;
22318;SDS011;11327;52.334;9.506;2023-08-21T11:04:18;5.35;;;1.30;;
22318;SDS011;11327;52.334;9.506;2023-08-21T11:07:43;4.00;;;1.15;;
22318;SDS011;11327;52.334;9.506;2023-08-21T11:11:05;3.13;;;0.90;;
22318;SDS011;11327;52.334;9.506;2023-08-21T11:14:27;4.58;;;1.22;;
22318;SDS011;11327;52.334;9.506;2023-08-21T11:17:54;2.95;;;1.20;;
22318;SDS011;11327;52.334;9.506;2023-08-21T11:21:17;2.80;;;0.95;;
22318;SDS011;11327;52.334;9.506;2023-08-21T11:28:02;2.37;;;0.80;;
22318;SDS011;11327;52.334;9.506;2023-08-21T11:31:23;2.40;;;0.80;;
22318;SDS011;11327;52.334;9.506;2023-08-21T11:34:47;2.08;;;0.95;;
22318;SDS011;11327;52.334;9.506;2023-08-21T11:38:19;2.42;;;1.00;;
22318;SDS011;11327;52.334;9.506;2023-08-21T11:41:54;4.70;;;1.35;;
22318;SDS011;11327;52.334;9.506;2023-08-21T11:45:20;4.45;;;1.10;;
22318;SDS011;11327;52.334;9.506;2023-08-21T11:48:42;3.40;;;1.00;;
22318;SDS011;11327;52.334;9.506;2023-08-21T11:52:04;3.35;;;1.00;;
22318;SDS011;11327;52.334;9.506;2023-08-21T11:55:25;2.85;;;1.05;;
22318;SDS011;11327;52.334;9.506;2023-08-21T11:58:45;3.33;;;1.15;;
22318;SDS011;11327;52.334;9.506;2023-08-21T12:05:42;6.87;;;1.52;;
22318;SDS011;11327;52.334;9.506;2023-08-21T12:09:01;2.35;;;1.10;;
22318;SDS011;11327;52.334;9.506;2023-08-21T12:12:23;3.83;;;1.20;;
22318;SDS011;11327;52.334;9.506;2023-08-21T12:15:44;5.25;;;1.50;;
22318;SDS011;11327;52.334;9.506;2023-08-21T12:19:05;2.35;;;1.00;;
22318;SDS011;11327;52.334;9.506;2023-08-21T12:22:28;3.95;;;1.30;;
22318;SDS011;11327;52.334;9.506;2023-08-21T12:25:48;3.02;;;1.20;;
22318;SDS011;11327;52.334;9.506;2023-08-21T12:29:09;3.05;;;1.17;;
22318;SDS011;11327;52.334;9.506;2023-08-21T12:32:30;5.05;;;1.27;;
22318;SDS011;11327;52.334;9.506;2023-08-21T12:35:50;4.15;;;1.30;;
22318;SDS011;11327;52.334;9.506;2023-08-21T12:39:11;3.80;;;0.98;;
22318;SDS011;11327;52.334;9.506;2023-08-21T12:42:32;5.33;;;1.20;;
22318;SDS011;11327;52.334;9.506;2023-08-21T12:45:53;3.92;;;1.10;;
22318;SDS011;11327;52.334;9.506;2023-08-21T12:49:14;2.75;;;1.12;;
22318;SDS011;11327;52.334;9.506;2023-08-21T12:52:35;3.95;;;1.32;;
22318;SDS011;11327;52.334;9.506;2023-08-21T12:55:56;5.40;;;1.25;;
22318;SDS011;11327;52.334;9.506;2023-08-21T12:59:16;4.05;;;1.30;;
22318;SDS011;11327;52.334;9.506;2023-08-21T13:02:37;2.75;;;1.25;;
22318;SDS011;11327;52.334;9.506;2023-08-21T13:05:58;3.30;;;1.00;;
22318;SDS011;11327;52.334;9.506;2023-08-21T13:09:19;2.58;;;1.02;;
22318;SDS011;11327;52.334;9.506;2023-08-21T13:12:39;4.03;;;1.10;;
22318;SDS011;11327;52.334;9.506;2023-08-21T13:16:00;3.17;;;1.27;;
22318;SDS011;11327;52.334;9.506;2023-08-21T13:19:21;2.85;;;1.22;;
22318;SDS011;11327;52.334;9.506;2023-08-21T13:22:48;2.58;;;1.02;;
22318;SDS011;11327;52.334;9.506;2023-08-21T13:26:11;3.22;;;1.20;;
22318;SDS011;11327;52.334;9.506;2023-08-21T13:29:32;2.80;;;0.80;;
22318;SDS011;11327;52.334;9.506;2023-08-21T13:32:53;7.10;;;5.35;;
22318;SDS011;11327;52.334;9.506;2023-08-21T13:36:15;4.15;;;1.62;;
22318;SDS011;11327;52.334;9.506;2023-08-21T13:39:37;6.95;;;4.60;;
22318;SDS011;11327;52.334;9.506;2023-08-21T13:42:57;4.75;;;1.50;;
22318;SDS011;11327;52.334;9.506;2023-08-21T13:46:19;3.35;;;1.12;;
22318;SDS011;11327;52.334;9.506;2023-08-21T13:49:40;4.75;;;1.00;;
22318;SDS011;11327;52.334;9.506;2023-08-21T13:53:00;3.83;;;0.90;;
22318;SDS011;11327;52.334;9.506;2023-08-21T13:56:21;5.35;;;1.00;;
22318;SDS011;11327;52.334;9.506;2023-08-21T13:59:42;3.40;;;0.80;;
22318;SDS011;11327;52.334;9.506;2023-08-21T14:03:03;3.20;;;1.17;;
22318;SDS011;11327;52.334;9.506;2023-08-21T14:06:24;2.80;;;1.05;;
22318;SDS011;11327;52.334;9.506;2023-08-21T14:09:44;2.60;;;0.88;;
22318;SDS011;11327;52.334;9.506;2023-08-21T14:13:05;1.80;;;0.80;;
22318;SDS011;11327;52.334;9.506;2023-08-21T14:16:28;3.35;;;0.90;;
22318;SDS011;11327;52.334;9.506;2023-08-21T14:19:48;2.25;;;0.90;;
22318;SDS011;11327;52.334;9.506;2023-08-21T14:23:09;1.15;;;0.75;;
22318;SDS011;11327;52.334;9.506;2023-08-21T14:26:30;1.87;;;0.80;;
22318;SDS011;11327;52.334;9.506;2023-08-21T14:29:50;2.33;;;0.93;;
22318;SDS011;11327;52.334;9.506;2023-08-21T14:33:11;3.30;;;0.95;;
22318;SDS011;11327;52.334;9.506;2023-08-21T14:36:32;3.15;;;0.88;;
22318;SDS011;11327;52.334;9.506;2023-08-21T14:39:53;2.77;;;0.75;;
22318;SDS011;11327;52.334;9.506;2023-08-21T14:43:13;1.90;;;0.70;;
22318;SDS011;11327;52.334;9.506;2023-08-21T14:46:34;2.58;;;0.82;;
22318;SDS011;11327;52.334;9.506;2023-08-21T14:49:55;2.10;;;0.80;;
22318;SDS011;11327;52.334;9.506;2023-08-21T14:53:15;2.45;;;0.82;;
22318;SDS011;11327;52.334;9.506;2023-08-21T14:56:36;5.08;;;0.70;;
22318;SDS011;11327;52.334;9.506;2023-08-21T14:59:57;2.20;;;0.93;;
22318;SDS011;11327;52.334;9.506;2023-08-21T15:03:18;2.47;;;0.80;;
22318;SDS011;11327;52.334;9.506;2023-08-21T15:06:38;1.87;;;0.80;;
22318;SDS011;11327;52.334;9.506;2023-08-21T15:09:59;2.22;;;0.93;;
22318;SDS011;11327;52.334;9.506;2023-08-21T15:13:20;2.55;;;0.80;;
22318;SDS011;11327;52.334;9.506;2023-08-21T15:16:41;2.27;;;0.82;;
22318;SDS011;11327;52.334;9.506;2023-08-21T15:20:02;2.40;;;0.70;;
22318;SDS011;11327;52.334;9.506;2023-08-21T15:23:27;1.50;;;0.80;;
22318;SDS011;11327;52.334;9.506;2023-08-21T15:26:48;0.90;;;0.70;;
22318;SDS011;11327;52.334;9.506;2023-08-21T15:30:09;2.92;;;1.15;;
22318;SDS011;11327;52.334;9.506;2023-08-21T15:33:30;2.70;;;0.93;;
22318;SDS011;11327;52.334;9.506;2023-08-21T15:36:50;3.02;;;1.00;;
22318;SDS011;11327;52.334;9.506;2023-08-21T15:40:11;2.20;;;0.98;;
22318;SDS011;11327;52.334;9.506;2023-08-21T15:43:32;1.65;;;0.80;;
22318;SDS011;11327;52.334;9.506;2023-08-21T15:46:52;2.65;;;1.10;;
22318;SDS011;11327;52.334;9.506;2023-08-21T15:50:13;2.85;;;1.10;;
22318;SDS011;11327;52.334;9.506;2023-08-21T15:53:35;1.70;;;1.00;;
22318;SDS011;11327;52.334;9.506;2023-08-21T15:56:55;1.22;;;0.88;;
22318;SDS011;11327;52.334;9.506;2023-08-21T16:00:16;2.52;;;1.05;;
22318;SDS011;11327;52.334;9.506;2023-08-21T16:03:37;2.12;;;1.00;;
22318;SDS011;11327;52.334;9.506;2023-08-21T16:06:58;5.75;;;1.10;;
22318;SDS011;11327;52.334;9.506;2023-08-21T16:10:19;3.77;;;1.07;;
22318;SDS011;11327;52.334;9.506;2023-08-21T16:13:40;1.90;;;1.10;;
22318;SDS011;11327;52.334;9.506;2023-08-21T16:17:00;2.27;;;1.10;;
22318;SDS011;11327;52.334;9.506;2023-08-21T16:20:21;2.37;;;1.27;;
22318;SDS011;11327;52.334;9.506;2023-08-21T16:23:42;3.05;;;1.15;;
22318;SDS011;11327;52.334;9.506;2023-08-21T16:27:03;5.70;;;1.17;;
22318;SDS011;11327;52.334;9.506;2023-08-21T16:30:23;2.80;;;1.10;;
22318;SDS011;11327;52.334;9.506;2023-08-21T16:33:44;2.95;;;1.07;;
22318;SDS011;11327;52.334;9.506;2023-08-21T16:37:05;3.08;;;1.27;;
22318;SDS011;11327;52.334;9.506;2023-08-21T16:40:25;2.50;;;1.35;;
22318;SDS011;11327;52.334;9.506;2023-08-21T16:43:46;1.85;;;1.12;;
22318;SDS011;11327;52.334;9.506;2023-08-21T16:47:07;1.92;;;1.30;;
22318;SDS011;11327;52.334;9.506;2023-08-21T16:50:27;3.67;;;1.10;;
22318;SDS011;11327;52.334;9.506;2023-08-21T16:53:48;3.10;;;1.20;;
22318;SDS011;11327;52.334;9.506;2023-08-21T16:57:09;2.95;;;1.60;;
22318;SDS011;11327;52.334;9.506;2023-08-21T17:00:31;2.58;;;1.30;;
22318;SDS011;11327;52.334;9.506;2023-08-21T17:03:52;2.00;;;1.00;;
22318;SDS011;11327;52.334;9.506;2023-08-21T17:07:13;4.37;;;1.35;;
22318;SDS011;11327;52.334;9.506;2023-08-21T17:10:34;3.02;;;1.15;;
22318;SDS011;11327;52.334;9.506;2023-08-21T17:13:55;4.08;;;1.35;;
22318;SDS011;11327;52.334;9.506;2023-08-21T17:17:16;3.02;;;1.20;;
22318;SDS011;11327;52.334;9.506;2023-08-21T17:20:36;1.27;;;0.90;;
22318;SDS011;11327;52.334;9.506;2023-08-21T17:23:57;2.60;;;1.27;;
22318;SDS011;11327;52.334;9.506;2023-08-21T17:27:18;4.30;;;1.40;;
22318;SDS011;11327;52.334;9.506;2023-08-21T17:30:38;2.47;;;1.40;;
22318;SDS011;11327;52.334;9.506;2023-08-21T17:33:59;2.60;;;0.98;;
22318;SDS011;11327;52.334;9.506;2023-08-21T17:37:20;3.45;;;1.10;;
22318;SDS011;11327;52.334;9.506;2023-08-21T17:40:40;1.72;;;1.10;;
22318;SDS011;11327;52.334;9.506;2023-08-21T17:44:01;1.52;;;1.07;;
22318;SDS011;11327;52.334;9.506;2023-08-21T17:47:22;2.52;;;1.10;;
22318;SDS011;11327;52.334;9.506;2023-08-21T17:50:42;2.85;;;1.15;;
22318;SDS011;11327;52.334;9.506;2023-08-21T17:54:04;1.95;;;1.20;;
22318;SDS011;11327;52.334;9.506;2023-08-21T17:57:25;3.12;;;1.50;;
22318;SDS011;11327;52.334;9.506;2023-08-21T18:00:45;3.02;;;1.30;;
22318;SDS011;11327;52.334;9.506;2023-08-21T18:04:08;3.87;;;1.20;;
22318;SDS011;11327;52.334;9.506;2023-08-21T18:07:29;1.32;;;0.82;;
22318;SDS011;11327;52.334;9.506;2023-08-21T18:10:50;2.30;;;1.40;;
22318;SDS011;11327;52.334;9.506;2023-08-21T18:14:12;2.87;;;1.35;;
22318;SDS011;11327;52.334;9.506;2023-08-21T18:17:37;2.30;;;1.00;;
22318;SDS011;11327;52.334;9.506;2023-08-21T18:20:58;3.15;;;1.10;;
22318;SDS011;11327;52.334;9.506;2023-08-21T18:24:19;3.20;;;1.30;;
22318;SDS011;11327;52.334;9.506;2023-08-21T18:27:39;5.28;;;1.40;;
22318;SDS011;11327;52.334;9.506;2023-08-21T18:31:00;2.83;;;1.10;;
22318;SDS011;11327;52.334;9.506;2023-08-21T18:34:21;2.83;;;1.30;;
22318;SDS011;11327;52.334;9.506;2023-08-21T18:37:42;4.72;;;1.00;;
22318;SDS011;11327;52.334;9.506;2023-08-21T18:41:02;4.97;;;1.10;;
22318;SDS011;11327;52.334;9.506;2023-08-21T18:44:23;3.12;;;1.17;;
22318;SDS011;11327;52.334;9.506;2023-08-21T18:47:45;1.92;;;1.00;;
22318;SDS011;11327;52.334;9.506;2023-08-21T18:51:06;4.40;;;1.20;;
22318;SDS011;11327;52.334;9.506;2023-08-21T18:54:26;2.70;;;1.10;;
22318;SDS011;11327;52.334;9.506;2023-08-21T18:57:47;2.83;;;1.27;;
22318;SDS011;11327;52.334;9.506;2023-08-21T19:01:08;2.95;;;1.22;;
22318;SDS011;11327;52.334;9.506;2023-08-21T19:04:30;2.20;;;1.20;;
22318;SDS011;11327;52.334;9.506;2023-08-21T19:07:51;2.72;;;1.37;;
22318;SDS011;11327;52.334;9.506;2023-08-21T19:11:12;2.62;;;1.27;;
22318;SDS011;11327;52.334;9.506;2023-08-21T19:14:32;2.95;;;1.37;;
22318;SDS011;11327;52.334;9.506;2023-08-21T19:17:53;3.25;;;1.32;;
22318;SDS011;11327;52.334;9.506;2023-08-21T19:21:14;3.17;;;1.30;;
22318;SDS011;11327;52.334;9.506;2023-08-21T19:24:35;2.12;;;1.10;;
22318;SDS011;11327;52.334;9.506;2023-08-21T19:27:55;2.95;;;1.22;;
22318;SDS011;11327;52.334;9.506;2023-08-21T19:31:17;4.72;;;1.30;;
22318;SDS011;11327;52.334;9.506;2023-08-21T19:34:38;3.92;;;1.32;;
22318;SDS011;11327;52.334;9.506;2023-08-21T19:37:59;4.80;;;3.70;;
22318;SDS011;11327;52.334;9.506;2023-08-21T19:41:19;5.28;;;3.08;;
22318;SDS011;11327;52.334;9.506;2023-08-21T19:44:41;3.55;;;2.20;;
22318;SDS011;11327;52.334;9.506;2023-08-21T19:48:02;2.72;;;1.40;;
22318;SDS011;11327;52.334;9.506;2023-08-21T19:51:24;2.33;;;1.27;;
22318;SDS011;11327;52.334;9.506;2023-08-21T19:54:44;2.33;;;1.35;;
22318;SDS011;11327;52.334;9.506;2023-08-21T19:58:06;3.62;;;1.50;;
22318;SDS011;11327;52.334;9.506;2023-08-21T20:01:26;4.20;;;1.50;;
22318;SDS011;11327;52.334;9.506;2023-08-21T20:04:47;4.22;;;1.55;;
22318;SDS011;11327;52.334;9.506;2023-08-21T20:08:08;3.75;;;1.60;;
22318;SDS011;11327;52.334;9.506;2023-08-21T20:11:28;2.90;;;1.30;;
22318;SDS011;11327;52.334;9.506;2023-08-21T20:14:49;4.55;;;1.70;;
22318;SDS011;11327;52.334;9.506;2023-08-21T20:18:12;4.15;;;1.82;;
22318;SDS011;11327;52.334;9.506;2023-08-21T20:21:33;3.85;;;1.80;;
22318;SDS011;11327;52.334;9.506;2023-08-21T20:24:54;6.05;;;1.80;;
22318;SDS011;11327;52.334;9.506;2023-08-21T20:28:16;5.28;;;2.20;;